Terminal Aerodrome Forecast
Issued by NWS

Home | Current Version | Previous Version | Text Only | Print | Product List | Glossary On
Versions: 1 2 3 4 5 6 7 8 9 10
897
FTUS44 KJAN 231720
TAFHKS
TAF
KHKS 231720Z 2318/2418 32010G22KT P6SM BKN025
     FM240000 33008KT P6SM BKN035
     FM240200 33004KT P6SM SKC=

USA.gov is the U.S. government's official web portal to all federal, state and local government web resources and services.